sensor_id;sensor_type;location;lat;lon;timestamp;pressure;altitude;pressure_sealevel;temperature;humidity
73525;BME280;61776;56.194;44.160;2022-09-01T00:02:24;99717.03;;;14.75;58.98
73525;BME280;61776;56.194;44.160;2022-09-01T00:04:52;99719.66;;;14.75;59.02
73525;BME280;61776;56.194;44.160;2022-09-01T00:07:26;99726.47;;;14.53;60.03
73525;BME280;61776;56.194;44.160;2022-09-01T00:09:54;99731.69;;;14.45;59.97
73525;BME280;61776;56.194;44.160;2022-09-01T00:12:20;99739.69;;;14.52;59.81
73525;BME280;61776;56.194;44.160;2022-09-01T00:14:48;99731.31;;;14.56;60.06
73525;BME280;61776;56.194;44.160;2022-09-01T00:17:14;99738.72;;;14.45;60.20
73525;BME280;61776;56.194;44.160;2022-09-01T00:19:39;99743.81;;;14.38;60.32
73525;BME280;61776;56.194;44.160;2022-09-01T00:22:06;99749.72;;;14.40;59.95
73525;BME280;61776;56.194;44.160;2022-09-01T00:24:32;99750.34;;;14.42;60.28
73525;BME280;61776;56.194;44.160;2022-09-01T00:26:58;99755.56;;;14.42;60.10
73525;BME280;61776;56.194;44.160;2022-09-01T00:29:25;99764.06;;;14.36;60.25
73525;BME280;61776;56.194;44.160;2022-09-01T00:31:51;99771.13;;;14.27;60.38
73525;BME280;61776;56.194;44.160;2022-09-01T00:34:17;99773.22;;;14.32;60.31
73525;BME280;61776;56.194;44.160;2022-09-01T00:36:43;99782.56;;;14.18;60.47
73525;BME280;61776;56.194;44.160;2022-09-01T00:39:09;99773.25;;;14.24;60.61
73525;BME280;61776;56.194;44.160;2022-09-01T00:41:38;99767.25;;;14.15;60.55
73525;BME280;61776;56.194;44.160;2022-09-01T00:44:08;99765.63;;;14.14;60.38
73525;BME280;61776;56.194;44.160;2022-09-01T00:46:43;99778.53;;;13.99;60.60
73525;BME280;61776;56.194;44.160;2022-09-01T00:49:15;99775.44;;;13.87;61.13
73525;BME280;61776;56.194;44.160;2022-09-01T00:51:46;99777.72;;;13.90;61.43
73525;BME280;61776;56.194;44.160;2022-09-01T00:54:21;99781.66;;;13.70;61.90
73525;BME280;61776;56.194;44.160;2022-09-01T00:56:49;99785.25;;;13.69;61.64
73525;BME280;61776;56.194;44.160;2022-09-01T00:59:17;99780.03;;;13.77;61.83
73525;BME280;61776;56.194;44.160;2022-09-01T01:01:45;99784.59;;;13.75;61.28
73525;BME280;61776;56.194;44.160;2022-09-01T01:04:12;99778.22;;;13.77;61.00
73525;BME280;61776;56.194;44.160;2022-09-01T01:06:46;99792.13;;;13.62;60.90
73525;BME280;61776;56.194;44.160;2022-09-01T01:09:19;99784.13;;;13.71;60.46
73525;BME280;61776;56.194;44.160;2022-09-01T01:11:46;99786.72;;;13.71;60.32
73525;BME280;61776;56.194;44.160;2022-09-01T01:14:15;99789.00;;;13.66;60.19
73525;BME280;61776;56.194;44.160;2022-09-01T01:16:46;99787.38;;;13.65;60.09
73525;BME280;61776;56.194;44.160;2022-09-01T01:22:18;99788.19;;;13.74;60.70
73525;BME280;61776;56.194;44.160;2022-09-01T01:25:05;99793.25;;;13.67;60.69
73525;BME280;61776;56.194;44.160;2022-09-01T01:27:33;99783.31;;;13.63;61.26
73525;BME280;61776;56.194;44.160;2022-09-01T01:30:01;99784.94;;;13.64;61.93
73525;BME280;61776;56.194;44.160;2022-09-01T01:32:29;99787.06;;;13.60;61.80
73525;BME280;61776;56.194;44.160;2022-09-01T01:34:55;99785.56;;;13.57;62.21
73525;BME280;61776;56.194;44.160;2022-09-01T01:37:22;99783.81;;;13.58;62.44
73525;BME280;61776;56.194;44.160;2022-09-01T01:39:50;99778.09;;;13.54;62.20
73525;BME280;61776;56.194;44.160;2022-09-01T01:42:17;99788.38;;;13.56;62.72
73525;BME280;61776;56.194;44.160;2022-09-01T01:44:43;99784.28;;;13.53;63.07
73525;BME280;61776;56.194;44.160;2022-09-01T01:47:11;99790.16;;;13.47;62.89
73525;BME280;61776;56.194;44.160;2022-09-01T01:49:39;99793.69;;;13.30;63.31
73525;BME280;61776;56.194;44.160;2022-09-01T01:52:10;99788.78;;;13.27;63.50
73525;BME280;61776;56.194;44.160;2022-09-01T01:54:42;99797.28;;;13.20;63.79
73525;BME280;61776;56.194;44.160;2022-09-01T01:57:12;99797.25;;;13.12;63.95
73525;BME280;61776;56.194;44.160;2022-09-01T01:59:43;99801.31;;;13.07;64.50
73525;BME280;61776;56.194;44.160;2022-09-01T02:02:10;99800.81;;;13.03;64.30
73525;BME280;61776;56.194;44.160;2022-09-01T02:04:37;99795.09;;;12.99;64.63
73525;BME280;61776;56.194;44.160;2022-09-01T02:07:10;99804.50;;;12.92;65.06
73525;BME280;61776;56.194;44.160;2022-09-01T02:09:38;99804.84;;;12.89;65.08
73525;BME280;61776;56.194;44.160;2022-09-01T02:12:07;99805.94;;;12.78;65.18
73525;BME280;61776;56.194;44.160;2022-09-01T02:14:34;99811.44;;;12.67;65.75
73525;BME280;61776;56.194;44.160;2022-09-01T02:17:00;99805.88;;;12.62;65.88
73525;BME280;61776;56.194;44.160;2022-09-01T02:19:33;99802.44;;;12.53;66.17
73525;BME280;61776;56.194;44.160;2022-09-01T02:22:03;99810.06;;;12.55;66.23
73525;BME280;61776;56.194;44.160;2022-09-01T02:24:29;99807.94;;;12.50;66.27
73525;BME280;61776;56.194;44.160;2022-09-01T02:26:55;99815.91;;;12.49;66.43
73525;BME280;61776;56.194;44.160;2022-09-01T02:29:22;99812.66;;;12.47;66.50
73525;BME280;61776;56.194;44.160;2022-09-01T02:31:52;99813.63;;;12.46;66.60
73525;BME280;61776;56.194;44.160;2022-09-01T02:34:19;99808.88;;;12.41;66.51
73525;BME280;61776;56.194;44.160;2022-09-01T02:36:48;99817.47;;;12.33;66.93
73525;BME280;61776;56.194;44.160;2022-09-01T02:39:25;99808.75;;;12.16;67.52
73525;BME280;61776;56.194;44.160;2022-09-01T02:41:51;99819.81;;;12.18;67.46
73525;BME280;61776;56.194;44.160;2022-09-01T02:44:23;99815.13;;;12.22;67.13
73525;BME280;61776;56.194;44.160;2022-09-01T02:46:49;99818.25;;;12.26;67.32
73525;BME280;61776;56.194;44.160;2022-09-01T02:49:21;99810.22;;;12.19;67.44
73525;BME280;61776;56.194;44.160;2022-09-01T02:51:52;99819.34;;;12.23;67.13
73525;BME280;61776;56.194;44.160;2022-09-01T02:54:20;99814.31;;;12.21;66.91
73525;BME280;61776;56.194;44.160;2022-09-01T02:56:47;99816.75;;;12.23;67.09
73525;BME280;61776;56.194;44.160;2022-09-01T02:59:18;99821.66;;;12.26;67.01
73525;BME280;61776;56.194;44.160;2022-09-01T03:01:48;99820.38;;;12.30;66.90
73525;BME280;61776;56.194;44.160;2022-09-01T03:04:15;99826.59;;;12.37;66.37
73525;BME280;61776;56.194;44.160;2022-09-01T03:06:41;99820.47;;;12.47;66.07
73525;BME280;61776;56.194;44.160;2022-09-01T03:09:10;99823.72;;;12.49;65.82
73525;BME280;61776;56.194;44.160;2022-09-01T03:11:44;99826.03;;;12.52;65.88
73525;BME280;61776;56.194;44.160;2022-09-01T03:14:10;99825.69;;;12.55;65.31
73525;BME280;61776;56.194;44.160;2022-09-01T03:16:38;99830.97;;;12.63;65.12
73525;BME280;61776;56.194;44.160;2022-09-01T03:19:06;99829.69;;;12.67;64.99
73525;BME280;61776;56.194;44.160;2022-09-01T03:21:35;99832.31;;;12.75;64.75
73525;BME280;61776;56.194;44.160;2022-09-01T03:24:03;99829.59;;;12.85;64.34
73525;BME280;61776;56.194;44.160;2022-09-01T03:26:30;99831.06;;;12.88;63.29
73525;BME280;61776;56.194;44.160;2022-09-01T03:28:56;99829.31;;;12.96;63.72
73525;BME280;61776;56.194;44.160;2022-09-01T03:31:22;99832.22;;;13.01;63.85
73525;BME280;61776;56.194;44.160;2022-09-01T03:33:54;99826.25;;;13.09;63.42
73525;BME280;61776;56.194;44.160;2022-09-01T03:36:26;99831.94;;;13.05;62.60
73525;BME280;61776;56.194;44.160;2022-09-01T03:38:53;99821.84;;;13.10;62.67
73525;BME280;61776;56.194;44.160;2022-09-01T03:41:25;99831.63;;;13.24;62.66
73525;BME280;61776;56.194;44.160;2022-09-01T03:43:54;99824.53;;;13.34;61.83
73525;BME280;61776;56.194;44.160;2022-09-01T03:46:27;99831.19;;;13.37;62.19
73525;BME280;61776;56.194;44.160;2022-09-01T03:48:58;99836.09;;;13.48;62.22
73525;BME280;61776;56.194;44.160;2022-09-01T03:51:28;99839.69;;;13.47;62.01
73525;BME280;61776;56.194;44.160;2022-09-01T03:53:56;99842.97;;;13.49;61.67
73525;BME280;61776;56.194;44.160;2022-09-01T03:56:27;99845.38;;;13.34;61.34
73525;BME280;61776;56.194;44.160;2022-09-01T03:58:56;99854.78;;;13.27;61.86
73525;BME280;61776;56.194;44.160;2022-09-01T04:01:24;99854.66;;;13.37;61.11
73525;BME280;61776;56.194;44.160;2022-09-01T04:03:51;99848.00;;;13.43;61.19
73525;BME280;61776;56.194;44.160;2022-09-01T04:06:22;99847.19;;;13.34;61.38
73525;BME280;61776;56.194;44.160;2022-09-01T04:08:49;99841.97;;;13.50;61.33
73525;BME280;61776;56.194;44.160;2022-09-01T04:11:20;99848.19;;;13.41;60.06
73525;BME280;61776;56.194;44.160;2022-09-01T04:13:49;99848.66;;;13.45;60.34
73525;BME280;61776;56.194;44.160;2022-09-01T04:19:10;99852.75;;;13.47;60.16
73525;BME280;61776;56.194;44.160;2022-09-01T04:21:47;99848.34;;;13.64;60.15
73525;BME280;61776;56.194;44.160;2022-09-01T04:24:15;99864.81;;;13.56;59.80
73525;BME280;61776;56.194;44.160;2022-09-01T04:26:46;99863.69;;;13.51;60.26
73525;BME280;61776;56.194;44.160;2022-09-01T04:29:14;99858.47;;;13.51;60.32
73525;BME280;61776;56.194;44.160;2022-09-01T04:31:41;99860.25;;;13.67;60.07
73525;BME280;61776;56.194;44.160;2022-09-01T04:34:07;99856.84;;;13.83;59.73
73525;BME280;61776;56.194;44.160;2022-09-01T04:36:43;99857.00;;;13.89;59.56
73525;BME280;61776;56.194;44.160;2022-09-01T04:39:11;99855.53;;;13.87;59.35
73525;BME280;61776;56.194;44.160;2022-09-01T04:41:42;99849.97;;;14.06;59.02
73525;BME280;61776;56.194;44.160;2022-09-01T04:44:13;99854.69;;;14.19;58.77
73525;BME280;61776;56.194;44.160;2022-09-01T04:46:41;99860.91;;;14.18;56.95
73525;BME280;61776;56.194;44.160;2022-09-01T04:49:13;99858.94;;;14.20;56.89
73525;BME280;61776;56.194;44.160;2022-09-01T04:51:48;99873.81;;;14.20;56.78
73525;BME280;61776;56.194;44.160;2022-09-01T04:54:14;99867.28;;;13.99;55.63
73525;BME280;61776;56.194;44.160;2022-09-01T04:56:46;99876.75;;;14.00;55.58
73525;BME280;61776;56.194;44.160;2022-09-01T04:59:17;99865.31;;;13.93;54.01
73525;BME280;61776;56.194;44.160;2022-09-01T05:01:49;99875.25;;;13.65;52.43
73525;BME280;61776;56.194;44.160;2022-09-01T05:04:18;99871.69;;;13.66;52.91
73525;BME280;61776;56.194;44.160;2022-09-01T05:06:48;99881.16;;;13.75;53.26
73525;BME280;61776;56.194;44.160;2022-09-01T05:09:18;99880.66;;;13.88;53.32
73525;BME280;61776;56.194;44.160;2022-09-01T05:12:13;99879.84;;;13.87;52.72
73525;BME280;61776;56.194;44.160;2022-09-01T05:14:44;99866.97;;;13.94;53.15
73525;BME280;61776;56.194;44.160;2022-09-01T05:17:16;99874.44;;;14.13;51.96
73525;BME280;61776;56.194;44.160;2022-09-01T05:19:45;99882.59;;;14.27;52.50
73525;BME280;61776;56.194;44.160;2022-09-01T05:22:14;99886.66;;;14.46;51.56
73525;BME280;61776;56.194;44.160;2022-09-01T05:24:59;99895.47;;;14.45;51.14
73525;BME280;61776;56.194;44.160;2022-09-01T05:27:42;99892.84;;;14.61;50.78
73525;BME280;61776;56.194;44.160;2022-09-01T05:30:15;99902.00;;;14.57;51.02
73525;BME280;61776;56.194;44.160;2022-09-01T05:32:43;99890.72;;;14.48;49.50
73525;BME280;61776;56.194;44.160;2022-09-01T05:35:13;99890.06;;;14.63;50.00
73525;BME280;61776;56.194;44.160;2022-09-01T05:37:39;99878.13;;;14.68;50.10
73525;BME280;61776;56.194;44.160;2022-09-01T05:40:08;99888.13;;;14.96;49.70
73525;BME280;61776;56.194;44.160;2022-09-01T05:42:43;99884.47;;;15.13;49.00
73525;BME280;61776;56.194;44.160;2022-09-01T05:45:10;99887.16;;;14.97;48.75
73525;BME280;61776;56.194;44.160;2022-09-01T05:47:39;99882.50;;;15.16;48.97
73525;BME280;61776;56.194;44.160;2022-09-01T05:50:07;99885.84;;;15.01;48.30
73525;BME280;61776;56.194;44.160;2022-09-01T05:52:38;99883.53;;;15.06;48.80
73525;BME280;61776;56.194;44.160;2022-09-01T05:55:04;99884.00;;;15.41;48.11
73525;BME280;61776;56.194;44.160;2022-09-01T05:57:37;99882.34;;;15.71;47.29
73525;BME280;61776;56.194;44.160;2022-09-01T06:00:06;99878.44;;;15.67;47.32
73525;BME280;61776;56.194;44.160;2022-09-01T06:02:39;99885.63;;;15.42;45.20
73525;BME280;61776;56.194;44.160;2022-09-01T06:05:09;99885.72;;;15.26;46.33
73525;BME280;61776;56.194;44.160;2022-09-01T06:07:36;99883.16;;;15.18;47.04
73525;BME280;61776;56.194;44.160;2022-09-01T06:10:05;99886.09;;;15.46;48.21
73525;BME280;61776;56.194;44.160;2022-09-01T06:12:31;99879.66;;;15.80;46.31
73525;BME280;61776;56.194;44.160;2022-09-01T06:14:58;99887.19;;;15.83;44.88
73525;BME280;61776;56.194;44.160;2022-09-01T06:17:26;99885.63;;;15.74;44.74
73525;BME280;61776;56.194;44.160;2022-09-01T06:19:58;99886.47;;;15.89;46.19
73525;BME280;61776;56.194;44.160;2022-09-01T06:22:27;99881.75;;;16.07;45.05
73525;BME280;61776;56.194;44.160;2022-09-01T06:24:53;99890.41;;;16.08;44.61
73525;BME280;61776;56.194;44.160;2022-09-01T06:27:21;99890.78;;;16.05;44.75
73525;BME280;61776;56.194;44.160;2022-09-01T06:29:47;99897.16;;;16.02;44.54
73525;BME280;61776;56.194;44.160;2022-09-01T06:32:19;99890.59;;;15.83;44.15
73525;BME280;61776;56.194;44.160;2022-09-01T06:34:45;99895.31;;;16.11;44.45
73525;BME280;61776;56.194;44.160;2022-09-01T06:37:15;99903.84;;;16.43;43.57
73525;BME280;61776;56.194;44.160;2022-09-01T06:39:43;99894.16;;;16.43;42.46
73525;BME280;61776;56.194;44.160;2022-09-01T06:42:10;99895.25;;;16.34;42.56
73525;BME280;61776;56.194;44.160;2022-09-01T06:44:49;99898.34;;;16.53;42.39
73525;BME280;61776;56.194;44.160;2022-09-01T06:47:15;99898.63;;;16.58;43.11
73525;BME280;61776;56.194;44.160;2022-09-01T06:49:41;99897.59;;;16.74;41.94
73525;BME280;61776;56.194;44.160;2022-09-01T06:52:13;99909.81;;;16.81;42.38
73525;BME280;61776;56.194;44.160;2022-09-01T06:54:40;99912.13;;;16.84;42.59
73525;BME280;61776;56.194;44.160;2022-09-01T06:57:08;99899.06;;;16.76;42.59
73525;BME280;61776;56.194;44.160;2022-09-01T06:59:34;99911.81;;;16.94;42.30
73525;BME280;61776;56.194;44.160;2022-09-01T07:02:01;99891.66;;;16.50;42.25
73525;BME280;61776;56.194;44.160;2022-09-01T07:04:52;99908.09;;;16.59;43.50
73525;BME280;61776;56.194;44.160;2022-09-01T07:07:18;99908.75;;;16.91;42.66
73525;BME280;61776;56.194;44.160;2022-09-01T07:09:50;99904.94;;;17.44;43.30
73525;BME280;61776;56.194;44.160;2022-09-01T07:12:24;99906.34;;;17.83;41.99
73525;BME280;61776;56.194;44.160;2022-09-01T07:14:51;99902.91;;;18.33;41.57
73525;BME280;61776;56.194;44.160;2022-09-01T07:17:18;99897.88;;;18.31;41.08
73525;BME280;61776;56.194;44.160;2022-09-01T07:19:46;99895.63;;;18.28;40.30
73525;BME280;61776;56.194;44.160;2022-09-01T07:22:12;99903.50;;;18.28;40.52
73525;BME280;61776;56.194;44.160;2022-09-01T07:24:42;99890.19;;;18.30;39.72
73525;BME280;61776;56.194;44.160;2022-09-01T07:27:31;99897.84;;;17.81;40.79
73525;BME280;61776;56.194;44.160;2022-09-01T07:29:57;99914.19;;;17.04;41.65
73525;BME280;61776;56.194;44.160;2022-09-01T07:32:23;99904.94;;;16.63;43.97
73525;BME280;61776;56.194;44.160;2022-09-01T07:34:50;99898.88;;;16.33;43.94
73525;BME280;61776;56.194;44.160;2022-09-01T07:37:17;99903.16;;;16.11;44.27
73525;BME280;61776;56.194;44.160;2022-09-01T07:39:43;99901.06;;;16.06;44.48
73525;BME280;61776;56.194;44.160;2022-09-01T07:42:29;99905.31;;;16.75;44.20
73525;BME280;61776;56.194;44.160;2022-09-01T07:45:15;99902.63;;;17.35;41.04
73525;BME280;61776;56.194;44.160;2022-09-01T07:48:02;99909.84;;;18.12;43.00
73525;BME280;61776;56.194;44.160;2022-09-01T07:50:39;99887.03;;;18.48;40.36
73525;BME280;61776;56.194;44.160;2022-09-01T07:53:09;99893.13;;;18.48;40.15
73525;BME280;61776;56.194;44.160;2022-09-01T07:55:39;99892.00;;;18.64;39.98
73525;BME280;61776;56.194;44.160;2022-09-01T07:58:05;99899.75;;;19.14;38.78
73525;BME280;61776;56.194;44.160;2022-09-01T08:00:32;99907.19;;;19.04;38.27
73525;BME280;61776;56.194;44.160;2022-09-01T08:03:04;99905.03;;;18.79;38.52
73525;BME280;61776;56.194;44.160;2022-09-01T08:05:30;99907.16;;;17.84;39.73
73525;BME280;61776;56.194;44.160;2022-09-01T08:07:57;99907.13;;;17.41;41.58
73525;BME280;61776;56.194;44.160;2022-09-01T08:10:29;99896.03;;;17.24;42.38
73525;BME280;61776;56.194;44.160;2022-09-01T08:12:55;99909.31;;;17.01;42.53
73525;BME280;61776;56.194;44.160;2022-09-01T08:15:21;99899.00;;;16.84;43.21
73525;BME280;61776;56.194;44.160;2022-09-01T08:17:48;99904.50;;;16.60;43.35
73525;BME280;61776;56.194;44.160;2022-09-01T08:20:14;99899.25;;;16.75;43.05
73525;BME280;61776;56.194;44.160;2022-09-01T08:22:58;99900.84;;;17.57;42.43
73525;BME280;61776;56.194;44.160;2022-09-01T08:25:35;99895.25;;;18.31;39.76
73525;BME280;61776;56.194;44.160;2022-09-01T08:28:01;99898.50;;;18.68;38.82
73525;BME280;61776;56.194;44.160;2022-09-01T08:30:28;99888.34;;;18.58;39.25
73525;BME280;61776;56.194;44.160;2022-09-01T08:32:58;99898.00;;;18.51;39.70
73525;BME280;61776;56.194;44.160;2022-09-01T08:35:26;99894.16;;;18.19;40.20
73525;BME280;61776;56.194;44.160;2022-09-01T08:37:56;99912.16;;;17.94;40.73
73525;BME280;61776;56.194;44.160;2022-09-01T08:40:24;99896.84;;;17.82;40.71
73525;BME280;61776;56.194;44.160;2022-09-01T08:46:03;99895.81;;;17.40;40.87
73525;BME280;61776;56.194;44.160;2022-09-01T08:48:37;99887.63;;;17.87;41.45
73525;BME280;61776;56.194;44.160;2022-09-01T08:56:51;99899.28;;;17.84;39.48
73525;BME280;61776;56.194;44.160;2022-09-01T08:59:32;99891.75;;;17.96;41.25
73525;BME280;61776;56.194;44.160;2022-09-01T09:16:53;99897.19;;;18.22;39.15
73525;BME280;61776;56.194;44.160;2022-09-01T09:19:27;99890.03;;;18.38;38.57
73525;BME280;61776;56.194;44.160;2022-09-01T09:21:56;99893.69;;;18.43;38.51
73525;BME280;61776;56.194;44.160;2022-09-01T09:24:29;99894.47;;;18.37;39.69
73525;BME280;61776;56.194;44.160;2022-09-01T09:27:26;99890.88;;;18.80;38.56
73525;BME280;61776;56.194;44.160;2022-09-01T09:32:59;99885.28;;;18.90;39.51
73525;BME280;61776;56.194;44.160;2022-09-01T09:35:48;99884.16;;;18.71;38.05
73525;BME280;61776;56.194;44.160;2022-09-01T09:38:20;99884.91;;;18.99;38.95
73525;BME280;61776;56.194;44.160;2022-09-01T09:41:03;99887.38;;;19.08;37.30
73525;BME280;61776;56.194;44.160;2022-09-01T09:43:35;99884.41;;;19.37;37.99
73525;BME280;61776;56.194;44.160;2022-09-01T09:46:24;99890.28;;;18.78;37.75
73525;BME280;61776;56.194;44.160;2022-09-01T09:51:40;99878.56;;;18.80;37.49
73525;BME280;61776;56.194;44.160;2022-09-01T09:54:26;99875.72;;;19.37;37.50
73525;BME280;61776;56.194;44.160;2022-09-01T09:59:46;99877.78;;;20.62;35.20
73525;BME280;61776;56.194;44.160;2022-09-01T10:02:27;99881.16;;;20.82;32.96
73525;BME280;61776;56.194;44.160;2022-09-01T10:04:57;99875.84;;;21.34;33.36
73525;BME280;61776;56.194;44.160;2022-09-01T10:10:02;99871.47;;;21.85;34.61
73525;BME280;61776;56.194;44.160;2022-09-01T10:12:29;99877.75;;;21.59;34.32
73525;BME280;61776;56.194;44.160;2022-09-01T10:15:06;99896.81;;;20.84;31.91
73525;BME280;61776;56.194;44.160;2022-09-01T10:17:41;99883.72;;;19.84;32.42
73525;BME280;61776;56.194;44.160;2022-09-01T10:20:12;99886.56;;;20.02;34.03
73525;BME280;61776;56.194;44.160;2022-09-01T10:22:42;99878.03;;;20.13;34.69
73525;BME280;61776;56.194;44.160;2022-09-01T10:25:13;99878.00;;;20.47;35.02
73525;BME280;61776;56.194;44.160;2022-09-01T10:27:43;99887.31;;;20.56;33.99
73525;BME280;61776;56.194;44.160;2022-09-01T10:30:17;99890.41;;;19.86;34.23
73525;BME280;61776;56.194;44.160;2022-09-01T10:33:03;99900.59;;;19.28;35.08
73525;BME280;61776;56.194;44.160;2022-09-01T10:35:34;99889.72;;;19.44;35.94
73525;BME280;61776;56.194;44.160;2022-09-01T10:38:14;99897.63;;;19.44;36.00
73525;BME280;61776;56.194;44.160;2022-09-01T10:40:45;99895.28;;;20.23;39.26
73525;BME280;61776;56.194;44.160;2022-09-01T10:43:32;99890.38;;;20.33;33.74
73525;BME280;61776;56.194;44.160;2022-09-01T10:48:50;99879.13;;;20.78;34.22
73525;BME280;61776;56.194;44.160;2022-09-01T10:54:01;99882.09;;;22.03;31.57
73525;BME280;61776;56.194;44.160;2022-09-01T10:56:42;99878.72;;;22.40;33.57
73525;BME280;61776;56.194;44.160;2022-09-01T11:04:16;99900.09;;;20.52;33.09
73525;BME280;61776;56.194;44.160;2022-09-01T11:07:01;99890.53;;;20.51;32.83
73525;BME280;61776;56.194;44.160;2022-09-01T11:09:44;99897.66;;;20.58;32.56
73525;BME280;61776;56.194;44.160;2022-09-01T11:12:29;99881.63;;;20.66;34.79
73525;BME280;61776;56.194;44.160;2022-09-01T11:15:00;99884.53;;;20.24;33.70
73525;BME280;61776;56.194;44.160;2022-09-01T11:17:30;99888.94;;;20.64;32.92
73525;BME280;61776;56.194;44.160;2022-09-01T11:20:08;99880.06;;;20.11;34.30
73525;BME280;61776;56.194;44.160;2022-09-01T11:22:45;99884.94;;;20.01;34.97
73525;BME280;61776;56.194;44.160;2022-09-01T11:25:42;99893.56;;;19.42;35.14
73525;BME280;61776;56.194;44.160;2022-09-01T11:36:30;99890.31;;;19.39;34.99
73525;BME280;61776;56.194;44.160;2022-09-01T11:44:43;99891.34;;;18.84;36.86
73525;BME280;61776;56.194;44.160;2022-09-01T11:47:16;99888.59;;;19.05;35.94
73525;BME280;61776;56.194;44.160;2022-09-01T11:49:54;99888.06;;;19.30;35.94
73525;BME280;61776;56.194;44.160;2022-09-01T11:52:24;99896.06;;;19.01;36.15
73525;BME280;61776;56.194;44.160;2022-09-01T11:54:51;99912.91;;;18.79;36.35
73525;BME280;61776;56.194;44.160;2022-09-01T11:57:32;99906.19;;;19.05;36.42
73525;BME280;61776;56.194;44.160;2022-09-01T12:00:00;99885.88;;;19.40;34.62
73525;BME280;61776;56.194;44.160;2022-09-01T12:02:31;99897.50;;;20.12;33.68
73525;BME280;61776;56.194;44.160;2022-09-01T12:05:00;99887.91;;;20.58;33.76
73525;BME280;61776;56.194;44.160;2022-09-01T12:07:37;99884.72;;;20.29;32.38
73525;BME280;61776;56.194;44.160;2022-09-01T12:10:29;99894.81;;;20.66;35.23
73525;BME280;61776;56.194;44.160;2022-09-01T12:13:21;99895.75;;;20.91;31.64
73525;BME280;61776;56.194;44.160;2022-09-01T12:15:55;99889.88;;;20.83;31.97
73525;BME280;61776;56.194;44.160;2022-09-01T12:18:27;99889.88;;;20.89;33.22
73525;BME280;61776;56.194;44.160;2022-09-01T12:20:58;99891.97;;;20.67;32.35
73525;BME280;61776;56.194;44.160;2022-09-01T12:23:33;99896.91;;;20.17;32.57
73525;BME280;61776;56.194;44.160;2022-09-01T12:26:14;99904.28;;;19.40;33.54
73525;BME280;61776;56.194;44.160;2022-09-01T12:28:42;99908.03;;;19.04;35.38
73525;BME280;61776;56.194;44.160;2022-09-01T12:31:15;99897.75;;;18.74;34.36
73525;BME280;61776;56.194;44.160;2022-09-01T12:33:42;99896.72;;;19.10;35.00
73525;BME280;61776;56.194;44.160;2022-09-01T12:36:32;99898.78;;;19.22;35.54
73525;BME280;61776;56.194;44.160;2022-09-01T12:41:44;99910.63;;;18.97;35.17
73525;BME280;61776;56.194;44.160;2022-09-01T12:44:33;99912.72;;;19.90;32.72
73525;BME280;61776;56.194;44.160;2022-09-01T12:47:12;99901.50;;;20.55;30.68
73525;BME280;61776;56.194;44.160;2022-09-01T12:49:43;99902.38;;;21.07;31.77
73525;BME280;61776;56.194;44.160;2022-09-01T12:52:17;99927.34;;;21.57;30.44
73525;BME280;61776;56.194;44.160;2022-09-01T12:54:54;99913.06;;;21.64;29.65
73525;BME280;61776;56.194;44.160;2022-09-01T12:57:37;99908.78;;;21.95;29.34
73525;BME280;61776;56.194;44.160;2022-09-01T13:05:39;99914.34;;;19.85;33.46
73525;BME280;61776;56.194;44.160;2022-09-01T13:08:15;99918.22;;;19.27;33.71
73525;BME280;61776;56.194;44.160;2022-09-01T13:10:47;99924.78;;;18.68;35.60
73525;BME280;61776;56.194;44.160;2022-09-01T13:13:15;99921.66;;;18.51;35.88
73525;BME280;61776;56.194;44.160;2022-09-01T13:15:46;99919.00;;;18.16;36.37
73525;BME280;61776;56.194;44.160;2022-09-01T13:18:14;99921.09;;;18.28;36.66
73525;BME280;61776;56.194;44.160;2022-09-01T13:20:39;99923.22;;;18.46;36.72
73525;BME280;61776;56.194;44.160;2022-09-01T13:23:07;99921.00;;;19.12;36.07
73525;BME280;61776;56.194;44.160;2022-09-01T13:25:33;99919.69;;;19.43;35.84
73525;BME280;61776;56.194;44.160;2022-09-01T13:28:00;99921.69;;;19.41;35.80
73525;BME280;61776;56.194;44.160;2022-09-01T13:30:28;99921.25;;;19.24;36.06
73525;BME280;61776;56.194;44.160;2022-09-01T13:32:55;99917.75;;;18.75;36.30
73525;BME280;61776;56.194;44.160;2022-09-01T13:35:21;99919.75;;;18.67;36.15
73525;BME280;61776;56.194;44.160;2022-09-01T13:37:48;99917.75;;;19.10;35.21
73525;BME280;61776;56.194;44.160;2022-09-01T13:40:15;99923.59;;;19.06;35.69
73525;BME280;61776;56.194;44.160;2022-09-01T13:42:43;99907.75;;;18.86;35.57
73525;BME280;61776;56.194;44.160;2022-09-01T13:45:10;99920.31;;;18.62;36.06
73525;BME280;61776;56.194;44.160;2022-09-01T13:47:38;99914.44;;;18.32;37.13
73525;BME280;61776;56.194;44.160;2022-09-01T13:50:07;99918.56;;;18.13;37.01
73525;BME280;61776;56.194;44.160;2022-09-01T13:52:33;99923.75;;;18.06;37.56
73525;BME280;61776;56.194;44.160;2022-09-01T13:55:00;99929.00;;;18.06;37.09
73525;BME280;61776;56.194;44.160;2022-09-01T13:57:26;99933.50;;;18.12;37.85
73525;BME280;61776;56.194;44.160;2022-09-01T13:59:52;99937.94;;;18.68;36.84
73525;BME280;61776;56.194;44.160;2022-09-01T14:02:19;99931.44;;;18.92;36.42
73525;BME280;61776;56.194;44.160;2022-09-01T14:04:46;99933.75;;;19.09;35.42
73525;BME280;61776;56.194;44.160;2022-09-01T14:07:12;99937.34;;;19.63;35.64
73525;BME280;61776;56.194;44.160;2022-09-01T14:09:37;99931.94;;;19.84;34.28
73525;BME280;61776;56.194;44.160;2022-09-01T14:12:03;99926.72;;;21.16;33.10
73525;BME280;61776;56.194;44.160;2022-09-01T14:14:32;99936.03;;;22.21;31.08
73525;BME280;61776;56.194;44.160;2022-09-01T14:16:58;99931.22;;;21.86;30.61
73525;BME280;61776;56.194;44.160;2022-09-01T14:19:23;99934.94;;;21.40;31.88
73525;BME280;61776;56.194;44.160;2022-09-01T14:21:49;99929.44;;;21.80;30.49
73525;BME280;61776;56.194;44.160;2022-09-01T14:24:15;99927.06;;;21.71;30.27